sensor_id;sensor_type;location;lat;lon;timestamp;temperature;humidity
68433;DHT22;55412;51.350;17.056;2022-11-18T00:00:49;1.50;78.90
68433;DHT22;55412;51.350;17.056;2022-11-18T00:03:16;1.40;78.70
68433;DHT22;55412;51.350;17.056;2022-11-18T00:05:42;1.40;78.60
68433;DHT22;55412;51.350;17.056;2022-11-18T00:08:08;1.40;79.30
68433;DHT22;55412;51.350;17.056;2022-11-18T00:10:38;1.30;78.90
68433;DHT22;55412;51.350;17.056;2022-11-18T00:13:04;1.30;79.60
68433;DHT22;55412;51.350;17.056;2022-11-18T00:15:48;1.30;79.30
68433;DHT22;55412;51.350;17.056;2022-11-18T00:18:14;1.20;79.60
68433;DHT22;55412;51.350;17.056;2022-11-18T00:20:40;1.20;79.80
68433;DHT22;55412;51.350;17.056;2022-11-18T00:23:06;1.20;79.60
68433;DHT22;55412;51.350;17.056;2022-11-18T00:25:33;1.10;80.20
68433;DHT22;55412;51.350;17.056;2022-11-18T00:27:59;1.10;80.50
68433;DHT22;55412;51.350;17.056;2022-11-18T00:30:25;1.10;80.50
68433;DHT22;55412;51.350;17.056;2022-11-18T00:32:51;1.10;80.60
68433;DHT22;55412;51.350;17.056;2022-11-18T00:35:17;1.10;79.70
68433;DHT22;55412;51.350;17.056;2022-11-18T00:37:43;1.10;80.20
68433;DHT22;55412;51.350;17.056;2022-11-18T00:40:09;1.10;80.10
68433;DHT22;55412;51.350;17.056;2022-11-18T00:42:36;1.10;79.90
68433;DHT22;55412;51.350;17.056;2022-11-18T00:45:18;1.00;80.30
68433;DHT22;55412;51.350;17.056;2022-11-18T00:47:45;1.00;80.80
68433;DHT22;55412;51.350;17.056;2022-11-18T00:50:11;1.00;80.20
68433;DHT22;55412;51.350;17.056;2022-11-18T00:52:37;1.00;80.40
68433;DHT22;55412;51.350;17.056;2022-11-18T00:55:03;1.00;80.90
68433;DHT22;55412;51.350;17.056;2022-11-18T00:57:30;1.10;80.60
68433;DHT22;55412;51.350;17.056;2022-11-18T00:59:56;1.10;80.60
68433;DHT22;55412;51.350;17.056;2022-11-18T01:02:22;1.20;79.90
68433;DHT22;55412;51.350;17.056;2022-11-18T01:04:48;1.10;79.70
68433;DHT22;55412;51.350;17.056;2022-11-18T01:07:14;1.00;80.10
68433;DHT22;55412;51.350;17.056;2022-11-18T01:09:40;1.10;80.30
68433;DHT22;55412;51.350;17.056;2022-11-18T01:12:07;1.00;80.00
68433;DHT22;55412;51.350;17.056;2022-11-18T01:14:53;1.00;80.50
68433;DHT22;55412;51.350;17.056;2022-11-18T01:17:19;1.00;79.90
68433;DHT22;55412;51.350;17.056;2022-11-18T01:19:45;1.00;80.80
68433;DHT22;55412;51.350;17.056;2022-11-18T01:22:11;1.00;80.20
68433;DHT22;55412;51.350;17.056;2022-11-18T01:24:37;0.90;80.40
68433;DHT22;55412;51.350;17.056;2022-11-18T01:27:03;1.00;80.40
68433;DHT22;55412;51.350;17.056;2022-11-18T01:29:29;1.00;80.30
68433;DHT22;55412;51.350;17.056;2022-11-18T01:31:55;1.00;80.70
68433;DHT22;55412;51.350;17.056;2022-11-18T01:34:21;1.00;80.40
68433;DHT22;55412;51.350;17.056;2022-11-18T01:36:47;1.00;79.90
68433;DHT22;55412;51.350;17.056;2022-11-18T01:39:13;0.90;80.30
68433;DHT22;55412;51.350;17.056;2022-11-18T01:41:39;0.90;80.70
68433;DHT22;55412;51.350;17.056;2022-11-18T01:47:53;0.90;80.80
68433;DHT22;55412;51.350;17.056;2022-11-18T01:50:48;0.90;80.60
68433;DHT22;55412;51.350;17.056;2022-11-18T01:53:24;0.90;80.30
68433;DHT22;55412;51.350;17.056;2022-11-18T01:55:54;0.90;80.20
68433;DHT22;55412;51.350;17.056;2022-11-18T01:58:53;0.80;80.10
68433;DHT22;55412;51.350;17.056;2022-11-18T02:01:22;0.80;79.80
68433;DHT22;55412;51.350;17.056;2022-11-18T02:03:49;0.80;80.60
68433;DHT22;55412;51.350;17.056;2022-11-18T02:06:15;0.80;80.20
68433;DHT22;55412;51.350;17.056;2022-11-18T02:08:42;0.70;80.40
68433;DHT22;55412;51.350;17.056;2022-11-18T02:11:10;0.80;81.00
68433;DHT22;55412;51.350;17.056;2022-11-18T02:13:59;0.80;80.60
68433;DHT22;55412;51.350;17.056;2022-11-18T02:31:13;0.80;80.80
68433;DHT22;55412;51.350;17.056;2022-11-18T02:33:54;0.80;80.60
68433;DHT22;55412;51.350;17.056;2022-11-18T02:39:21;0.80;80.50
68433;DHT22;55412;51.350;17.056;2022-11-18T02:41:51;0.70;80.40
68433;DHT22;55412;51.350;17.056;2022-11-18T02:44:21;0.70;81.20
68433;DHT22;55412;51.350;17.056;2022-11-18T02:46:53;0.70;80.90
68433;DHT22;55412;51.350;17.056;2022-11-18T02:49:28;0.70;81.20
68433;DHT22;55412;51.350;17.056;2022-11-18T02:51:59;0.70;80.90
68433;DHT22;55412;51.350;17.056;2022-11-18T02:54:26;0.70;80.70
68433;DHT22;55412;51.350;17.056;2022-11-18T02:56:54;0.70;81.20
68433;DHT22;55412;51.350;17.056;2022-11-18T02:59:20;0.70;81.10
68433;DHT22;55412;51.350;17.056;2022-11-18T03:01:47;0.70;80.90
68433;DHT22;55412;51.350;17.056;2022-11-18T03:04:14;0.70;80.70
68433;DHT22;55412;51.350;17.056;2022-11-18T03:07:05;0.70;80.90
68433;DHT22;55412;51.350;17.056;2022-11-18T03:09:46;0.70;80.60
68433;DHT22;55412;51.350;17.056;2022-11-18T03:15:33;0.70;80.70
68433;DHT22;55412;51.350;17.056;2022-11-18T03:18:31;0.70;80.40
68433;DHT22;55412;51.350;17.056;2022-11-18T03:21:43;0.60;80.00
68433;DHT22;55412;51.350;17.056;2022-11-18T03:24:10;0.60;80.10
68433;DHT22;55412;51.350;17.056;2022-11-18T03:26:43;0.50;80.00
68433;DHT22;55412;51.350;17.056;2022-11-18T03:29:35;0.50;80.10
68433;DHT22;55412;51.350;17.056;2022-11-18T03:32:05;0.40;79.90
68433;DHT22;55412;51.350;17.056;2022-11-18T03:34:44;0.30;80.10
68433;DHT22;55412;51.350;17.056;2022-11-18T03:37:15;0.30;80.80
68433;DHT22;55412;51.350;17.056;2022-11-18T03:39:50;0.30;80.60
68433;DHT22;55412;51.350;17.056;2022-11-18T03:42:34;0.30;80.40
68433;DHT22;55412;51.350;17.056;2022-11-18T03:45:33;0.30;80.10
68433;DHT22;55412;51.350;17.056;2022-11-18T03:48:35;0.20;80.10
68433;DHT22;55412;51.350;17.056;2022-11-18T03:51:09;0.20;80.60
68433;DHT22;55412;51.350;17.056;2022-11-18T03:53:40;0.20;80.80
68433;DHT22;55412;51.350;17.056;2022-11-18T03:56:12;0.20;80.40
68433;DHT22;55412;51.350;17.056;2022-11-18T04:01:44;0.20;79.60
68433;DHT22;55412;51.350;17.056;2022-11-18T04:04:23;0.20;79.00
68433;DHT22;55412;51.350;17.056;2022-11-18T04:09:29;0.20;79.30
68433;DHT22;55412;51.350;17.056;2022-11-18T04:12:07;0.20;78.90
68433;DHT22;55412;51.350;17.056;2022-11-18T04:14:37;0.20;79.30
68433;DHT22;55412;51.350;17.056;2022-11-18T04:17:10;0.20;79.80
68433;DHT22;55412;51.350;17.056;2022-11-18T04:19:39;0.20;79.80
68433;DHT22;55412;51.350;17.056;2022-11-18T04:22:06;0.20;77.70
68433;DHT22;55412;51.350;17.056;2022-11-18T04:24:35;0.10;77.90
68433;DHT22;55412;51.350;17.056;2022-11-18T04:27:02;0.10;79.00
68433;DHT22;55412;51.350;17.056;2022-11-18T04:29:31;0.10;78.90
68433;DHT22;55412;51.350;17.056;2022-11-18T04:31:59;0.10;78.10
68433;DHT22;55412;51.350;17.056;2022-11-18T04:34:26;0.00;78.00
68433;DHT22;55412;51.350;17.056;2022-11-18T04:36:53;0.00;78.60
68433;DHT22;55412;51.350;17.056;2022-11-18T04:39:19;0.00;78.10
68433;DHT22;55412;51.350;17.056;2022-11-18T04:41:45;0.00;77.50
68433;DHT22;55412;51.350;17.056;2022-11-18T04:44:25;0.10;77.60
68433;DHT22;55412;51.350;17.056;2022-11-18T04:46:59;0.00;77.10
68433;DHT22;55412;51.350;17.056;2022-11-18T04:49:27;0.00;76.40
68433;DHT22;55412;51.350;17.056;2022-11-18T04:51:54;0.00;76.60
68433;DHT22;55412;51.350;17.056;2022-11-18T04:54:21;-0.10;77.00
68433;DHT22;55412;51.350;17.056;2022-11-18T04:56:48;-0.10;76.60
68433;DHT22;55412;51.350;17.056;2022-11-18T04:59:16;-0.10;76.30
68433;DHT22;55412;51.350;17.056;2022-11-18T05:01:44;-0.10;76.90
68433;DHT22;55412;51.350;17.056;2022-11-18T05:04:15;-0.10;75.70
68433;DHT22;55412;51.350;17.056;2022-11-18T05:06:43;-0.20;76.30
68433;DHT22;55412;51.350;17.056;2022-11-18T05:09:09;-0.20;75.60
68433;DHT22;55412;51.350;17.056;2022-11-18T05:11:36;-0.30;76.40
68433;DHT22;55412;51.350;17.056;2022-11-18T05:14:23;-0.30;76.80
68433;DHT22;55412;51.350;17.056;2022-11-18T05:16:53;-0.30;76.10
68433;DHT22;55412;51.350;17.056;2022-11-18T05:19:21;-0.40;76.20
68433;DHT22;55412;51.350;17.056;2022-11-18T05:21:47;-0.40;76.30
68433;DHT22;55412;51.350;17.056;2022-11-18T05:24:13;-0.40;76.40
68433;DHT22;55412;51.350;17.056;2022-11-18T05:26:40;-0.40;76.10
68433;DHT22;55412;51.350;17.056;2022-11-18T05:29:06;-0.40;76.00
68433;DHT22;55412;51.350;17.056;2022-11-18T05:31:32;-0.40;75.90
68433;DHT22;55412;51.350;17.056;2022-11-18T05:33:58;-0.50;76.80
68433;DHT22;55412;51.350;17.056;2022-11-18T05:36:24;-0.40;76.90
68433;DHT22;55412;51.350;17.056;2022-11-18T05:38:50;-0.40;75.80
68433;DHT22;55412;51.350;17.056;2022-11-18T05:41:17;-0.40;75.70
68433;DHT22;55412;51.350;17.056;2022-11-18T05:44:03;-0.50;76.10
68433;DHT22;55412;51.350;17.056;2022-11-18T05:46:30;-0.50;76.20
68433;DHT22;55412;51.350;17.056;2022-11-18T05:48:56;-0.50;76.20
68433;DHT22;55412;51.350;17.056;2022-11-18T05:51:22;-0.50;76.10
68433;DHT22;55412;51.350;17.056;2022-11-18T05:53:51;-0.50;76.30
68433;DHT22;55412;51.350;17.056;2022-11-18T05:56:24;-0.50;76.30
68433;DHT22;55412;51.350;17.056;2022-11-18T05:58:53;-0.50;76.00
68433;DHT22;55412;51.350;17.056;2022-11-18T06:01:23;-0.60;76.00
68433;DHT22;55412;51.350;17.056;2022-11-18T06:03:51;-0.60;76.10
68433;DHT22;55412;51.350;17.056;2022-11-18T06:06:19;-0.60;75.90
68433;DHT22;55412;51.350;17.056;2022-11-18T06:08:56;-0.60;76.70
68433;DHT22;55412;51.350;17.056;2022-11-18T06:11:26;-0.60;76.20
68433;DHT22;55412;51.350;17.056;2022-11-18T06:14:08;-0.60;75.60
68433;DHT22;55412;51.350;17.056;2022-11-18T06:16:38;-0.60;76.40
68433;DHT22;55412;51.350;17.056;2022-11-18T06:19:09;-0.50;76.30
68433;DHT22;55412;51.350;17.056;2022-11-18T06:21:35;-0.50;76.60
68433;DHT22;55412;51.350;17.056;2022-11-18T06:24:01;-0.50;75.80
68433;DHT22;55412;51.350;17.056;2022-11-18T06:26:28;-0.60;76.20
68433;DHT22;55412;51.350;17.056;2022-11-18T06:28:55;-0.60;75.70
68433;DHT22;55412;51.350;17.056;2022-11-18T06:31:21;-0.70;75.80
68433;DHT22;55412;51.350;17.056;2022-11-18T06:33:47;-0.60;76.10
68433;DHT22;55412;51.350;17.056;2022-11-18T06:36:13;-0.70;75.80
68433;DHT22;55412;51.350;17.056;2022-11-18T06:38:39;-0.70;76.10
68433;DHT22;55412;51.350;17.056;2022-11-18T06:41:05;-0.60;76.10
68433;DHT22;55412;51.350;17.056;2022-11-18T06:43:31;-0.60;76.10
68433;DHT22;55412;51.350;17.056;2022-11-18T06:46:04;-0.60;75.90
68433;DHT22;55412;51.350;17.056;2022-11-18T06:48:50;-0.60;75.70
68433;DHT22;55412;51.350;17.056;2022-11-18T06:51:17;-0.60;75.50
68433;DHT22;55412;51.350;17.056;2022-11-18T06:53:43;-0.60;75.40
68433;DHT22;55412;51.350;17.056;2022-11-18T06:56:12;-0.60;75.50
68433;DHT22;55412;51.350;17.056;2022-11-18T06:58:40;-0.60;75.90
68433;DHT22;55412;51.350;17.056;2022-11-18T07:01:16;-0.70;75.20
68433;DHT22;55412;51.350;17.056;2022-11-18T07:03:45;-0.60;75.20
68433;DHT22;55412;51.350;17.056;2022-11-18T07:06:13;-0.60;75.00
68433;DHT22;55412;51.350;17.056;2022-11-18T07:08:42;-0.60;74.80
68433;DHT22;55412;51.350;17.056;2022-11-18T07:11:11;-0.50;75.20
68433;DHT22;55412;51.350;17.056;2022-11-18T07:13:39;-0.50;74.50
68433;DHT22;55412;51.350;17.056;2022-11-18T07:16:08;-0.50;74.80
68433;DHT22;55412;51.350;17.056;2022-11-18T07:18:38;-0.50;73.00
68433;DHT22;55412;51.350;17.056;2022-11-18T07:21:14;-0.60;73.10
68433;DHT22;55412;51.350;17.056;2022-11-18T07:23:42;-0.60;72.90
68433;DHT22;55412;51.350;17.056;2022-11-18T07:26:09;-0.60;72.60
68433;DHT22;55412;51.350;17.056;2022-11-18T07:28:36;-0.70;72.60
68433;DHT22;55412;51.350;17.056;2022-11-18T07:31:17;-0.80;72.80
68433;DHT22;55412;51.350;17.056;2022-11-18T07:33:45;-0.80;72.90
68433;DHT22;55412;51.350;17.056;2022-11-18T07:38:41;-0.80;73.60
68433;DHT22;55412;51.350;17.056;2022-11-18T07:41:16;-0.80;72.60
68433;DHT22;55412;51.350;17.056;2022-11-18T07:43:51;-0.80;73.00
68433;DHT22;55412;51.350;17.056;2022-11-18T07:46:36;-0.80;73.40
68433;DHT22;55412;51.350;17.056;2022-11-18T07:49:05;-0.80;73.40
68433;DHT22;55412;51.350;17.056;2022-11-18T07:51:34;-0.70;73.30
68433;DHT22;55412;51.350;17.056;2022-11-18T07:54:07;-0.70;71.40
68433;DHT22;55412;51.350;17.056;2022-11-18T07:56:37;-0.80;70.80
68433;DHT22;55412;51.350;17.056;2022-11-18T07:59:04;-0.80;71.50
68433;DHT22;55412;51.350;17.056;2022-11-18T08:01:30;-0.80;72.00
68433;DHT22;55412;51.350;17.056;2022-11-18T08:04:03;-0.80;71.90
68433;DHT22;55412;51.350;17.056;2022-11-18T08:06:32;-0.80;71.90
68433;DHT22;55412;51.350;17.056;2022-11-18T08:08:59;-0.80;71.80
68433;DHT22;55412;51.350;17.056;2022-11-18T08:11:26;-0.80;71.00
68433;DHT22;55412;51.350;17.056;2022-11-18T08:13:52;-0.80;70.20
68433;DHT22;55412;51.350;17.056;2022-11-18T08:16:20;-0.80;71.60
68433;DHT22;55412;51.350;17.056;2022-11-18T08:18:47;-0.80;70.60
68433;DHT22;55412;51.350;17.056;2022-11-18T08:21:15;-0.80;69.70
68433;DHT22;55412;51.350;17.056;2022-11-18T08:23:43;-0.90;70.00
68433;DHT22;55412;51.350;17.056;2022-11-18T08:26:14;-0.90;69.80
68433;DHT22;55412;51.350;17.056;2022-11-18T08:28:41;-0.90;70.20
68433;DHT22;55412;51.350;17.056;2022-11-18T08:31:14;-0.80;70.00
68433;DHT22;55412;51.350;17.056;2022-11-18T08:33:41;-0.80;69.70
68433;DHT22;55412;51.350;17.056;2022-11-18T08:36:12;-0.80;69.20
68433;DHT22;55412;51.350;17.056;2022-11-18T08:38:40;-0.80;69.00
68433;DHT22;55412;51.350;17.056;2022-11-18T08:41:06;-0.90;68.90
68433;DHT22;55412;51.350;17.056;2022-11-18T08:43:36;-0.90;69.70
68433;DHT22;55412;51.350;17.056;2022-11-18T08:46:02;-0.90;69.40
68433;DHT22;55412;51.350;17.056;2022-11-18T08:48:28;-0.90;69.40
68433;DHT22;55412;51.350;17.056;2022-11-18T08:50:54;-0.90;68.80
68433;DHT22;55412;51.350;17.056;2022-11-18T08:53:22;-1.00;68.70
68433;DHT22;55412;51.350;17.056;2022-11-18T08:55:54;-1.00;69.40
68433;DHT22;55412;51.350;17.056;2022-11-18T08:58:21;-1.10;68.90
68433;DHT22;55412;51.350;17.056;2022-11-18T09:00:47;-1.10;69.50
68433;DHT22;55412;51.350;17.056;2022-11-18T09:03:14;-1.00;69.00
68433;DHT22;55412;51.350;17.056;2022-11-18T09:05:40;-1.00;68.50
68433;DHT22;55412;51.350;17.056;2022-11-18T09:08:06;-1.00;68.60
68433;DHT22;55412;51.350;17.056;2022-11-18T09:10:32;-1.00;69.20
68433;DHT22;55412;51.350;17.056;2022-11-18T09:12:59;-0.90;69.10
68433;DHT22;55412;51.350;17.056;2022-11-18T09:15:25;-0.90;68.50
68433;DHT22;55412;51.350;17.056;2022-11-18T09:17:54;-1.00;68.40
68433;DHT22;55412;51.350;17.056;2022-11-18T09:20:21;-1.00;68.80
68433;DHT22;55412;51.350;17.056;2022-11-18T09:22:47;-1.00;68.50
68433;DHT22;55412;51.350;17.056;2022-11-18T09:25:13;-1.00;68.70
68433;DHT22;55412;51.350;17.056;2022-11-18T09:27:40;-1.00;68.30
68433;DHT22;55412;51.350;17.056;2022-11-18T09:30:07;-0.90;67.70
68433;DHT22;55412;51.350;17.056;2022-11-18T09:32:34;-1.00;67.70
68433;DHT22;55412;51.350;17.056;2022-11-18T09:35:00;-0.90;68.30
68433;DHT22;55412;51.350;17.056;2022-11-18T09:37:26;-0.90;67.80
68433;DHT22;55412;51.350;17.056;2022-11-18T09:39:52;-0.90;69.00
68433;DHT22;55412;51.350;17.056;2022-11-18T09:42:30;-0.90;67.90
68433;DHT22;55412;51.350;17.056;2022-11-18T09:45:31;-0.90;68.90
68433;DHT22;55412;51.350;17.056;2022-11-18T09:48:15;-0.90;68.00
68433;DHT22;55412;51.350;17.056;2022-11-18T09:50:44;-0.90;68.60
68433;DHT22;55412;51.350;17.056;2022-11-18T09:53:21;-0.90;67.60
68433;DHT22;55412;51.350;17.056;2022-11-18T09:55:50;-0.90;68.10
68433;DHT22;55412;51.350;17.056;2022-11-18T09:58:32;-0.80;68.00
68433;DHT22;55412;51.350;17.056;2022-11-18T10:01:00;-0.80;68.20
68433;DHT22;55412;51.350;17.056;2022-11-18T10:03:29;-0.80;67.60
68433;DHT22;55412;51.350;17.056;2022-11-18T10:06:17;-0.80;67.10
68433;DHT22;55412;51.350;17.056;2022-11-18T10:20:59;-1.00;68.50
68433;DHT22;55412;51.350;17.056;2022-11-18T10:23:37;-0.90;68.30
68433;DHT22;55412;51.350;17.056;2022-11-18T10:26:11;-0.90;68.50
68433;DHT22;55412;51.350;17.056;2022-11-18T10:28:37;-0.90;68.90
68433;DHT22;55412;51.350;17.056;2022-11-18T10:31:06;-0.90;68.60
68433;DHT22;55412;51.350;17.056;2022-11-18T10:33:34;-0.80;69.80
68433;DHT22;55412;51.350;17.056;2022-11-18T10:36:28;-0.80;70.60
68433;DHT22;55412;51.350;17.056;2022-11-18T10:39:14;-0.70;69.30
68433;DHT22;55412;51.350;17.056;2022-11-18T10:41:52;-0.70;69.40
68433;DHT22;55412;51.350;17.056;2022-11-18T10:44:37;-0.70;69.20
68433;DHT22;55412;51.350;17.056;2022-11-18T10:47:30;-0.80;69.30
68433;DHT22;55412;51.350;17.056;2022-11-18T10:50:00;-0.90;69.40
68433;DHT22;55412;51.350;17.056;2022-11-18T10:52:28;-0.90;70.00
68433;DHT22;55412;51.350;17.056;2022-11-18T10:55:19;-0.90;70.00
68433;DHT22;55412;51.350;17.056;2022-11-18T10:57:49;-0.80;70.80
68433;DHT22;55412;51.350;17.056;2022-11-18T11:06:14;-0.70;70.30
68433;DHT22;55412;51.350;17.056;2022-11-18T11:08:50;-0.80;70.30
68433;DHT22;55412;51.350;17.056;2022-11-18T11:11:38;-0.70;71.30
68433;DHT22;55412;51.350;17.056;2022-11-18T11:17:34;-0.70;71.00
68433;DHT22;55412;51.350;17.056;2022-11-18T11:20:09;-0.70;71.40
68433;DHT22;55412;51.350;17.056;2022-11-18T11:22:40;-0.60;71.90
68433;DHT22;55412;51.350;17.056;2022-11-18T11:25:17;-0.60;71.10
68433;DHT22;55412;51.350;17.056;2022-11-18T11:27:53;-0.60;70.50
68433;DHT22;55412;51.350;17.056;2022-11-18T11:30:27;-0.70;71.00
68433;DHT22;55412;51.350;17.056;2022-11-18T11:41:32;-0.60;72.20
68433;DHT22;55412;51.350;17.056;2022-11-18T11:44:40;-0.50;72.00
68433;DHT22;55412;51.350;17.056;2022-11-18T11:53:56;-0.60;71.70
68433;DHT22;55412;51.350;17.056;2022-11-18T11:59:56;-0.60;70.50
68433;DHT22;55412;51.350;17.056;2022-11-18T12:05:47;-0.80;71.40
68433;DHT22;55412;51.350;17.056;2022-11-18T12:08:19;-0.80;70.90
68433;DHT22;55412;51.350;17.056;2022-11-18T12:11:36;-0.80;71.30
68433;DHT22;55412;51.350;17.056;2022-11-18T12:14:05;-0.90;71.20
68433;DHT22;55412;51.350;17.056;2022-11-18T12:16:40;-0.90;72.40
68433;DHT22;55412;51.350;17.056;2022-11-18T12:19:23;-0.80;72.40
68433;DHT22;55412;51.350;17.056;2022-11-18T12:21:53;-0.80;70.60
68433;DHT22;55412;51.350;17.056;2022-11-18T12:24:29;-0.90;69.80
68433;DHT22;55412;51.350;17.056;2022-11-18T12:32:57;-1.00;70.30
68433;DHT22;55412;51.350;17.056;2022-11-18T12:35:33;-1.00;69.90
68433;DHT22;55412;51.350;17.056;2022-11-18T12:38:01;-1.10;69.20
68433;DHT22;55412;51.350;17.056;2022-11-18T12:40:37;-1.20;69.40
68433;DHT22;55412;51.350;17.056;2022-11-18T12:51:53;-1.40;69.20
68433;DHT22;55412;51.350;17.056;2022-11-18T12:59:42;-1.40;67.70
68433;DHT22;55412;51.350;17.056;2022-11-18T13:07:47;-1.40;67.90
68433;DHT22;55412;51.350;17.056;2022-11-18T13:10:36;-1.40;67.90
68433;DHT22;55412;51.350;17.056;2022-11-18T13:13:21;-1.40;68.00
68433;DHT22;55412;51.350;17.056;2022-11-18T13:15:47;-1.50;68.20
68433;DHT22;55412;51.350;17.056;2022-11-18T13:18:33;-1.40;68.50
68433;DHT22;55412;51.350;17.056;2022-11-18T13:21:00;-1.40;68.80
68433;DHT22;55412;51.350;17.056;2022-11-18T13:23:45;-1.30;69.10
68433;DHT22;55412;51.350;17.056;2022-11-18T13:26:21;-1.10;68.70
68433;DHT22;55412;51.350;17.056;2022-11-18T13:34:51;-1.10;67.10
68433;DHT22;55412;51.350;17.056;2022-11-18T13:37:24;-1.10;66.60
68433;DHT22;55412;51.350;17.056;2022-11-18T13:39:53;-1.00;66.70
68433;DHT22;55412;51.350;17.056;2022-11-18T13:42:22;-1.00;66.50
68433;DHT22;55412;51.350;17.056;2022-11-18T13:44:59;-1.00;67.50
68433;DHT22;55412;51.350;17.056;2022-11-18T13:50:24;-0.90;66.50
68433;DHT22;55412;51.350;17.056;2022-11-18T13:55:53;-0.90;66.20
68433;DHT22;55412;51.350;17.056;2022-11-18T13:58:41;-0.90;66.30
68433;DHT22;55412;51.350;17.056;2022-11-18T14:01:18;-0.80;66.00
68433;DHT22;55412;51.350;17.056;2022-11-18T14:06:32;-0.70;65.30
68433;DHT22;55412;51.350;17.056;2022-11-18T14:11:40;-0.70;65.90
68433;DHT22;55412;51.350;17.056;2022-11-18T14:14:36;-0.60;66.40
68433;DHT22;55412;51.350;17.056;2022-11-18T14:17:23;-0.60;66.50
68433;DHT22;55412;51.350;17.056;2022-11-18T14:19:55;-0.50;66.80
68433;DHT22;55412;51.350;17.056;2022-11-18T14:22:24;-0.40;67.00
68433;DHT22;55412;51.350;17.056;2022-11-18T14:25:00;-0.30;66.50
68433;DHT22;55412;51.350;17.056;2022-11-18T14:30:57;-0.20;65.50
68433;DHT22;55412;51.350;17.056;2022-11-18T14:33:33;-0.10;66.10
68433;DHT22;55412;51.350;17.056;2022-11-18T14:36:13;-0.10;65.90
68433;DHT22;55412;51.350;17.056;2022-11-18T14:38:46;-0.10;66.00
68433;DHT22;55412;51.350;17.056;2022-11-18T14:41:16;0.00;66.10
68433;DHT22;55412;51.350;17.056;2022-11-18T14:44:02;0.10;66.90
68433;DHT22;55412;51.350;17.056;2022-11-18T14:46:28;0.20;65.40
68433;DHT22;55412;51.350;17.056;2022-11-18T14:48:54;0.20;65.60
68433;DHT22;55412;51.350;17.056;2022-11-18T14:51:21;0.20;64.30
68433;DHT22;55412;51.350;17.056;2022-11-18T14:53:47;0.30;65.60
68433;DHT22;55412;51.350;17.056;2022-11-18T14:58:51;0.30;64.50
68433;DHT22;55412;51.350;17.056;2022-11-18T15:01:18;0.40;64.10
68433;DHT22;55412;51.350;17.056;2022-11-18T15:03:44;0.40;64.60
68433;DHT22;55412;51.350;17.056;2022-11-18T15:06:15;0.40;64.30
68433;DHT22;55412;51.350;17.056;2022-11-18T15:08:44;0.40;64.60
68433;DHT22;55412;51.350;17.056;2022-11-18T15:11:12;0.40;64.40
68433;DHT22;55412;51.350;17.056;2022-11-18T15:13:39;0.40;64.50
68433;DHT22;55412;51.350;17.056;2022-11-18T15:16:18;0.50;63.90
68433;DHT22;55412;51.350;17.056;2022-11-18T15:18:48;0.50;64.70
68433;DHT22;55412;51.350;17.056;2022-11-18T15:21:17;0.50;64.40
68433;DHT22;55412;51.350;17.056;2022-11-18T15:23:44;0.60;64.00
68433;DHT22;55412;51.350;17.056;2022-11-18T15:26:23;0.60;63.90
68433;DHT22;55412;51.350;17.056;2022-11-18T15:28:53;0.60;64.30
68433;DHT22;55412;51.350;17.056;2022-11-18T15:31:22;0.60;64.40
68433;DHT22;55412;51.350;17.056;2022-11-18T15:33:48;0.60;64.20
68433;DHT22;55412;51.350;17.056;2022-11-18T15:36:18;0.70;64.00
68433;DHT22;55412;51.350;17.056;2022-11-18T15:38:46;0.70;63.70
68433;DHT22;55412;51.350;17.056;2022-11-18T15:41:22;0.80;63.50
68433;DHT22;55412;51.350;17.056;2022-11-18T15:43:50;0.80;63.00
68433;DHT22;55412;51.350;17.056;2022-11-18T15:46:18;0.80;63.40
68433;DHT22;55412;51.350;17.056;2022-11-18T15:48:47;0.80;63.80
68433;DHT22;55412;51.350;17.056;2022-11-18T15:51:16;0.80;64.60
68433;DHT22;55412;51.350;17.056;2022-11-18T15:53:42;0.90;64.80
68433;DHT22;55412;51.350;17.056;2022-11-18T15:56:23;0.90;64.10
68433;DHT22;55412;51.350;17.056;2022-11-18T15:58:55;0.90;64.10
68433;DHT22;55412;51.350;17.056;2022-11-18T16:01:28;0.90;64.00
68433;DHT22;55412;51.350;17.056;2022-11-18T16:03:55;0.90;63.90
68433;DHT22;55412;51.350;17.056;2022-11-18T16:06:22;0.90;62.60
68433;DHT22;55412;51.350;17.056;2022-11-18T16:08:48;0.80;63.30
68433;DHT22;55412;51.350;17.056;2022-11-18T16:11:16;0.80;63.20
68433;DHT22;55412;51.350;17.056;2022-11-18T16:14:02;0.80;63.40
68433;DHT22;55412;51.350;17.056;2022-11-18T16:16:29;0.80;63.50
68433;DHT22;55412;51.350;17.056;2022-11-18T16:18:57;0.80;65.00
68433;DHT22;55412;51.350;17.056;2022-11-18T16:21:24;0.80;63.30
68433;DHT22;55412;51.350;17.056;2022-11-18T16:23:57;0.80;64.10
68433;DHT22;55412;51.350;17.056;2022-11-18T16:26:24;0.80;65.20
68433;DHT22;55412;51.350;17.056;2022-11-18T16:28:52;0.80;65.50
68433;DHT22;55412;51.350;17.056;2022-11-18T16:31:18;0.80;64.80
68433;DHT22;55412;51.350;17.056;2022-11-18T16:34:05;0.80;64.50
68433;DHT22;55412;51.350;17.056;2022-11-18T16:36:43;0.80;64.70
68433;DHT22;55412;51.350;17.056;2022-11-18T16:39:18;0.80;64.80
68433;DHT22;55412;51.350;17.056;2022-11-18T16:41:48;0.80;64.50
68433;DHT22;55412;51.350;17.056;2022-11-18T16:44:16;0.80;64.80
68433;DHT22;55412;51.350;17.056;2022-11-18T16:46:53;0.90;65.40
68433;DHT22;55412;51.350;17.056;2022-11-18T16:49:22;0.90;65.40
68433;DHT22;55412;51.350;17.056;2022-11-18T16:51:51;0.90;64.90
68433;DHT22;55412;51.350;17.056;2022-11-18T16:54:27;0.90;65.40
68433;DHT22;55412;51.350;17.056;2022-11-18T16:56:56;0.90;65.60
68433;DHT22;55412;51.350;17.056;2022-11-18T16:59:24;0.90;64.80
68433;DHT22;55412;51.350;17.056;2022-11-18T17:01:54;0.90;65.00
68433;DHT22;55412;51.350;17.056;2022-11-18T17:04:22;0.90;65.10
68433;DHT22;55412;51.350;17.056;2022-11-18T17:06:51;0.90;64.80
68433;DHT22;55412;51.350;17.056;2022-11-18T17:09:20;0.90;65.20
68433;DHT22;55412;51.350;17.056;2022-11-18T17:11:48;0.90;65.40
68433;DHT22;55412;51.350;17.056;2022-11-18T17:14:15;0.90;65.70
68433;DHT22;55412;51.350;17.056;2022-11-18T17:16:42;0.80;64.70
68433;DHT22;55412;51.350;17.056;2022-11-18T17:19:14;0.90;65.40
68433;DHT22;55412;51.350;17.056;2022-11-18T17:21:42;0.90;66.00
68433;DHT22;55412;51.350;17.056;2022-11-18T17:24:10;0.90;66.40
68433;DHT22;55412;51.350;17.056;2022-11-18T17:26:40;0.90;65.80
68433;DHT22;55412;51.350;17.056;2022-11-18T17:29:07;0.80;65.20
68433;DHT22;55412;51.350;17.056;2022-11-18T17:31:34;0.80;66.40
68433;DHT22;55412;51.350;17.056;2022-11-18T17:34:00;0.80;66.40
68433;DHT22;55412;51.350;17.056;2022-11-18T17:36:26;0.80;66.20
68433;DHT22;55412;51.350;17.056;2022-11-18T17:38:55;0.70;66.50
68433;DHT22;55412;51.350;17.056;2022-11-18T17:41:24;0.80;66.30
68433;DHT22;55412;51.350;17.056;2022-11-18T17:44:13;0.80;66.30
68433;DHT22;55412;51.350;17.056;2022-11-18T17:46:41;0.80;67.00
68433;DHT22;55412;51.350;17.056;2022-11-18T17:49:17;0.80;66.50
68433;DHT22;55412;51.350;17.056;2022-11-18T17:51:45;0.80;66.60
68433;DHT22;55412;51.350;17.056;2022-11-18T17:54:12;0.80;66.80